ADDS TAF Data INFO
IDs: Format: Raw Decoded Include METARs

Data at: 0433 UTC 21 Jan 2018

KCNM 210353Z AUTO 22008KT 10SM CLR 06/M09 A2981 RMK AO2 SLP074 T00561089

KCNM 202320Z 2100/2124 25017G28KT P6SM SKC
  FM210100 23009KT P6SM BKN200
  FM210800 25020G30KT P6SM SCT200
  FM211700 26035G50KT 3SM BLDU SKC